Time;durP1;ratioP1;P1;durP2;ratioP2;P2;SDS_P1;SDS_P2;PMS_P1;PMS_P2;Temp;Humidity;BMP_temperature;BMP_pressure;BME280_temperature;BME280_humidity;BME280_pressure;Samples;Min_cycle;Max_cycle;Signal;HPM_P1;HPM_P2
2023/12/09 00:02:09;;;;;;;103.93;33.03;;;;;;;;;;5049768;28;20072;-73
2023/12/09 00:04:35;;;;;;;105.18;32.22;;;;;;;;;;5049845;28;20037;-73
2023/12/09 00:07:01;;;;;;;98.07;33.38;;;;;;;;;;5049744;28;20041;-72
2023/12/09 00:09:27;;;;;;;110.28;33.25;;;;;;;;;;5050681;28;20095;-73
2023/12/09 00:11:53;;;;;;;106.25;32.50;;;;;;;;;;5051048;28;20103;-73
2023/12/09 00:14:20;;;;;;;91.22;31.02;;;;;;;;;;5049571;28;20037;-73
2023/12/09 00:16:46;;;;;;;98.13;33.47;;;;;;;;;;5033103;28;20516;-73
2023/12/09 00:19:13;;;;;;;101.13;32.55;;;;;;;;;;5050724;28;20122;-73
2023/12/09 00:21:38;;;;;;;103.28;31.65;;;12.30;99.90;;;;;;5049876;28;20390;-73
2023/12/09 00:24:04;;;;;;;109.35;33.10;;;12.30;99.90;;;;;;5049498;28;20095;-73
2023/12/09 00:26:30;;;;;;;112.53;33.22;;;;;;;;;;5049567;28;20045;-73
2023/12/09 00:28:56;;;;;;;106.80;31.23;;;12.50;99.90;;;;;;5052244;28;20079;-73
2023/12/09 00:31:22;;;;;;;95.45;32.55;;;;;;;;;;5053578;28;20076;-73
2023/12/09 00:33:48;;;;;;;94.03;30.63;;;12.40;99.90;;;;;;5054404;28;20040;-73
2023/12/09 00:36:13;;;;;;;93.78;32.88;;;12.60;99.90;;;;;;5053221;28;20037;-73
2023/12/09 00:38:39;;;;;;;93.47;31.65;;;12.40;99.90;;;;;;5036580;28;20504;-73
2023/12/09 00:41:05;;;;;;;102.40;32.10;;;12.30;99.90;;;;;;5052848;28;20049;-73
2023/12/09 00:43:31;;;;;;;98.72;31.52;;;;;;;;;;5052855;28;20040;-73
2023/12/09 00:45:57;;;;;;;96.45;33.78;;;;;;;;;;5054212;28;20484;-73
2023/12/09 00:48:23;;;;;;;101.75;31.52;;;;;;;;;;5036439;28;20041;-73
2023/12/09 00:50:49;;;;;;;78.90;29.83;;;;;;;;;;5052887;28;20471;-73
2023/12/09 00:53:15;;;;;;;85.25;30.75;;;;;;;;;;5035968;28;20072;-74
2023/12/09 00:55:41;;;;;;;103.43;29.38;;;12.50;99.90;;;;;;5052744;28;20124;-73
2023/12/09 00:58:06;;;;;;;102.28;31.70;;;12.40;99.90;;;;;;5052616;28;20148;-73
2023/12/09 01:00:32;;;;;;;77.97;29.45;;;12.50;99.90;;;;;;5052361;28;20041;-73
2023/12/09 01:02:58;;;;;;;92.47;30.98;;;;;;;;;;5052784;28;20043;-74
2023/12/09 01:05:23;;;;;;;88.40;30.05;;;12.30;99.90;;;;;;5052490;28;20501;-73
2023/12/09 01:07:49;;;;;;;92.07;31.30;;;12.20;99.90;;;;;;5052332;28;20074;-73
2023/12/09 01:10:14;;;;;;;89.65;30.17;;;12.30;99.90;;;;;;5052178;28;20083;-73
2023/12/09 01:12:40;;;;;;;88.38;30.38;;;;;;;;;;5052363;28;20048;-73
2023/12/09 01:15:06;;;;;;;92.60;28.60;;;;;;;;;;5052247;28;20052;-73
2023/12/09 01:17:32;;;;;;;77.38;28.35;;;;;;;;;;5035638;28;20076;-73
2023/12/09 01:19:58;;;;;;;108.18;29.38;;;12.60;99.90;;;;;;5052274;28;20129;-73
2023/12/09 01:22:23;;;;;;;87.10;29.10;;;12.30;99.90;;;;;;5052655;28;20040;-74
2023/12/09 01:24:49;;;;;;;79.72;26.63;;;12.30;99.90;;;;;;5035324;28;20489;-74
2023/12/09 01:27:15;;;;;;;80.38;28.05;;;;;;;;;;5035756;28;20037;-74
2023/12/09 01:29:41;;;;;;;79.55;27.02;;;;;;;;;;5035141;28;20068;-74
2023/12/09 01:32:07;;;;;;;91.07;28.38;;;;;;;;;;5052110;28;20040;-73
2023/12/09 01:34:34;;;;;;;75.03;26.42;;;;;;;;;;5051940;28;20138;-73
2023/12/09 01:36:59;;;;;;;74.80;25.77;;;12.20;99.90;;;;;;5051809;28;20497;-73
2023/12/09 01:39:27;;;;;;;72.93;24.42;;;12.60;99.90;;;;;;5051567;28;20039;-74
2023/12/09 01:41:52;;;;;;;85.55;26.77;;;12.50;99.90;;;;;;5051865;28;20072;-74
2023/12/09 01:44:18;;;;;;;73.35;25.42;;;12.30;99.90;;;;;;5051616;28;20072;-73
2023/12/09 01:46:44;;;;;;;71.30;24.98;;;;;;;;;;5051804;28;20415;-73
2023/12/09 01:49:10;;;;;;;76.28;25.33;;;;;;;;;;5051538;28;20531;-73
2023/12/09 01:51:38;;;;;;;68.10;24.80;;;;;;;;;;5051582;28;20037;-73
2023/12/09 01:54:04;;;;;;;66.05;25.33;;;;;;;;;;5051806;28;20044;-74
2023/12/09 01:56:30;;;;;;;67.72;25.42;;;;;;;;;;5052972;28;20083;-73
2023/12/09 01:58:56;;;;;;;83.55;27.33;;;;;;;;;;5034889;28;20448;-73
2023/12/09 02:01:23;;;;;;;79.22;27.05;;;12.40;99.90;;;;;;5051562;28;20037;-73
2023/12/09 02:03:50;;;;;;;83.43;25.70;;;;;;;;;;5034859;28;20033;-74
2023/12/09 02:06:16;;;;;;;77.57;25.42;;;12.40;99.90;;;;;;5051358;28;20132;-74
2023/12/09 02:08:42;;;;;;;76.72;27.25;;;12.30;99.90;;;;;;5051417;28;20128;-74
2023/12/09 02:11:28;;;;;;;71.10;25.10;;;;;;;;;;5051416;28;20063;-73
2023/12/09 02:14:07;;;;;;;65.30;25.77;;;;;;;;;;5051351;28;20070;-73
2023/12/09 02:16:51;;;;;;;67.03;25.60;;;12.50;99.90;;;;;;5051288;28;20045;-73
2023/12/09 02:19:17;;;;;;;78.35;25.27;;;;;;;;;;5050904;28;20492;-74
2023/12/09 02:22:03;;;;;;;71.82;26.92;;;;;;;;;;5051132;28;20040;-74
2023/12/09 02:24:30;;;;;;;66.22;24.17;;;;;;;;;;5050779;28;20106;-73
2023/12/09 02:27:02;;;;;;;82.10;26.50;;;;;;;;;;5050838;28;20055;-73
2023/12/09 02:29:32;;;;;;;72.65;25.63;;;12.40;99.90;;;;;;5050974;28;20049;-73
2023/12/09 02:32:02;;;;;;;70.53;26.27;;;12.00;99.90;;;;;;5051233;28;20393;-74
2023/12/09 02:34:30;;;;;;;76.40;26.65;;;12.40;99.90;;;;;;5052347;28;20037;-74
2023/12/09 02:36:57;;;;;;;81.85;26.67;;;12.50;99.90;;;;;;5052143;28;20076;-74
2023/12/09 02:39:22;;;;;;;81.88;27.20;;;12.20;99.90;;;;;;5055068;28;20037;-74
2023/12/09 02:41:49;;;;;;;80.78;27.85;;;12.30;99.90;;;;;;5056081;28;20033;-73
2023/12/09 02:44:15;;;;;;;57.80;23.67;;;12.20;99.90;;;;;;5056415;28;20040;-73
2023/12/09 02:46:40;;;;;;;64.38;25.70;;;12.30;99.90;;;;;;5050939;28;20045;-73
2023/12/09 02:49:06;;;;;;;63.83;26.52;;;;;;;;;;5050546;28;20519;-73
2023/12/09 02:51:32;;;;;;;67.85;25.70;;;;;;;;;;5050427;28;20519;-73
2023/12/09 02:53:58;;;;;;;75.90;26.77;;;12.10;99.90;;;;;;5050549;28;20080;-73
2023/12/09 02:56:23;;;;;;;66.28;24.67;;;12.30;99.90;;;;;;5050466;28;20033;-73
2023/12/09 02:58:49;;;;;;;74.00;26.23;;;12.30;99.90;;;;;;5051958;28;20410;-72
2023/12/09 03:01:15;;;;;;;82.88;25.90;;;;;;;;;;5050603;28;20072;-73
2023/12/09 03:03:40;;;;;;;60.50;26.80;;;12.30;99.90;;;;;;5050773;28;20049;-73
2023/12/09 03:06:06;;;;;;;67.68;24.20;;;;;;;;;;5051827;28;20044;-73
2023/12/09 03:08:32;;;;;;;71.85;24.92;;;;;;;;;;5050313;28;20096;-73
2023/12/09 03:10:58;;;;;;;71.15;25.02;;;12.30;99.90;;;;;;5033590;28;20041;-74
2023/12/09 03:13:25;;;;;;;68.20;25.77;;;;;;;;;;5050205;28;20033;-73
2023/12/09 03:15:51;;;;;;;70.00;25.08;;;;;;;;;;5050241;28;20077;-73
2023/12/09 03:18:16;;;;;;;60.83;24.65;;;12.10;99.90;;;;;;5050256;28;20551;-74
2023/12/09 03:20:42;;;;;;;57.58;23.42;;;;;;;;;;5049962;28;20037;-73
2023/12/09 03:23:08;;;;;;;70.40;26.13;;;;;;;;;;5075541;22;20052;-74
2023/12/09 03:25:34;;;;;;;73.97;25.00;;;;;;;;;;5050393;28;20044;-74
2023/12/09 03:28:00;;;;;;;78.13;25.45;;;;;;;;;;5050105;28;20507;-75
2023/12/09 03:30:26;;;;;;;54.33;23.45;;;;;;;;;;5049898;28;20055;-75
2023/12/09 03:32:52;;;;;;;59.00;24.33;;;;;;;;;;5050060;28;20535;-75
2023/12/09 03:35:18;;;;;;;62.08;24.35;;;12.10;99.90;;;;;;5050184;28;20049;-75
2023/12/09 03:37:44;;;;;;;64.47;24.10;;;;;;;;;;5049927;28;20041;-75
2023/12/09 03:40:10;;;;;;;64.93;23.33;;;11.80;99.90;;;;;;5050196;28;20037;-75
2023/12/09 03:42:36;;;;;;;59.65;25.23;;;;;;;;;;5049940;28;20048;-75
2023/12/09 03:45:02;;;;;;;63.22;24.70;;;;;;;;;;5033504;28;20037;-75
2023/12/09 03:47:28;;;;;;;59.30;23.52;;;;;;;;;;5050281;28;20131;-75
2023/12/09 03:49:54;;;;;;;66.15;24.48;;;;;;;;;;5049825;28;20072;-75
2023/12/09 03:52:20;;;;;;;74.78;26.25;;;;;;;;;;5049858;28;20505;-75
2023/12/09 03:54:46;;;;;;;69.82;25.63;;;;;;;;;;5050005;28;20041;-75
2023/12/09 03:57:13;;;;;;;62.50;25.75;;;;;;;;;;5049738;28;20037;-75
2023/12/09 03:59:40;;;;;;;59.78;23.83;;;;;;;;;;5049691;28;20053;-75
2023/12/09 04:02:06;;;;;;;73.43;23.92;;;;;;;;;;5050289;28;20471;-75
2023/12/09 04:04:32;;;;;;;54.20;23.00;;;;;;;;;;5054093;28;20051;-75
2023/12/09 04:06:58;;;;;;;73.70;26.00;;;;;;;;;;5054018;28;20080;-75
2023/12/09 04:09:24;;;;;;;76.82;26.17;;;;;;;;;;5053440;28;20037;-75
2023/12/09 04:11:50;;;;;;;64.55;24.52;;;;;;;;;;5036927;28;20090;-75
2023/12/09 04:14:16;;;;;;;67.05;22.85;;;;;;;;;;5036542;28;20041;-75
2023/12/09 04:16:42;;;;;;;57.97;22.02;;;;;;;;;;5036920;28;20040;-75
2023/12/09 04:19:08;;;;;;;65.80;23.25;;;;;;;;;;5053188;28;20067;-75
2023/12/09 04:21:34;;;;;;;72.03;23.73;;;;;;;;;;5053409;28;20531;-75
2023/12/09 04:24:00;;;;;;;74.15;23.48;;;12.20;99.90;;;;;;5053209;28;20043;-75
2023/12/09 04:26:26;;;;;;;65.15;22.90;;;;;;;;;;5036824;28;20037;-75
2023/12/09 04:28:51;;;;;;;63.58;23.48;;;12.20;99.90;;;;;;5052989;28;20040;-75
2023/12/09 04:31:17;;;;;;;65.57;24.30;;;;;;;;;;5036803;28;20420;-75
2023/12/09 04:33:46;;;;;;;56.92;22.27;;;12.40;99.90;;;;;;5036703;28;20061;-75
2023/12/09 04:36:12;;;;;;;64.18;23.75;;;;;;;;;;5036336;28;20044;-75
2023/12/09 04:38:38;;;;;;;65.72;25.50;;;;;;;;;;5053347;28;20041;-75
2023/12/09 04:41:04;;;;;;;64.90;23.35;;;;;;;;;;5052724;28;20041;-75
2023/12/09 04:43:30;;;;;;;77.22;23.58;;;;;;;;;;5052788;28;20079;-75
2023/12/09 04:45:56;;;;;;;62.72;22.75;;;;;;;;;;5036303;28;20076;-75
2023/12/09 04:48:22;;;;;;;61.42;22.30;;;12.10;99.90;;;;;;5036215;28;20083;-74
2023/12/09 04:50:48;;;;;;;59.35;23.58;;;;;;;;;;5052859;28;20037;-75
2023/12/09 04:53:14;;;;;;;60.38;20.48;;;;;;;;;;5052620;28;20033;-75
2023/12/09 04:55:41;;;;;;;68.03;22.45;;;12.30;99.90;;;;;;5052624;28;20037;-75
2023/12/09 04:58:07;;;;;;;61.70;21.85;;;;;;;;;;5035952;28;20033;-75
2023/12/09 05:00:33;;;;;;;67.97;22.63;;;;;;;;;;5052667;28;20190;-75
2023/12/09 05:02:59;;;;;;;55.67;22.02;;;;;;;;;;5052501;28;20047;-75
2023/12/09 05:05:25;;;;;;;57.88;20.85;;;;;;;;;;5052749;28;20045;-74
2023/12/09 05:07:51;;;;;;;57.63;20.52;;;;;;;;;;5052525;28;20048;-75
2023/12/09 05:10:18;;;;;;;53.63;20.98;;;;;;;;;;5052155;28;20048;-75
2023/12/09 05:12:44;;;;;;;58.17;21.33;;;12.30;99.90;;;;;;5051950;28;20045;-75
2023/12/09 05:15:10;;;;;;;66.57;20.92;;;12.20;99.90;;;;;;5035281;28;20568;-75
2023/12/09 05:17:36;;;;;;;57.00;21.17;;;;;;;;;;5035643;28;20481;-75
2023/12/09 05:20:04;;;;;;;51.33;20.73;;;12.20;99.90;;;;;;5052047;28;20041;-75
2023/12/09 05:22:30;;;;;;;58.35;19.17;;;;;;;;;;5052139;28;20041;-74
2023/12/09 05:24:56;;;;;;;48.10;20.58;;;;;;;;;;5052091;28;20125;-74
2023/12/09 05:27:22;;;;;;;60.53;19.85;;;;;;;;;;5035482;28;20048;-75
2023/12/09 05:29:48;;;;;;;55.80;19.58;;;12.40;99.90;;;;;;5052163;28;20053;-76
2023/12/09 05:32:14;;;;;;;53.15;18.55;;;;;;;;;;5052033;28;20033;-75
2023/12/09 05:34:40;;;;;;;61.22;19.67;;;;;;;;;;5051865;28;20067;-75
2023/12/09 05:37:05;;;;;;;66.00;19.98;;;;;;;;;;5051866;28;20489;-75
2023/12/09 05:39:31;;;;;;;55.22;19.80;;;;;;;;;;5034973;28;20083;-75
2023/12/09 05:41:57;;;;;;;53.40;20.48;;;12.30;99.90;;;;;;5051834;28;20062;-75
2023/12/09 05:44:23;;;;;;;53.50;20.45;;;12.30;99.90;;;;;;5051692;28;20109;-75
2023/12/09 05:46:49;;;;;;;60.47;19.27;;;;;;;;;;5051774;28;20052;-75
2023/12/09 05:49:15;;;;;;;56.72;19.02;;;;;;;;;;5051869;28;20041;-75
2023/12/09 05:51:43;;;;;;;40.03;18.85;;;11.80;99.90;;;;;;5035076;28;20554;-75
2023/12/09 05:54:09;;;;;;;55.38;18.05;;;;;;;;;;5051694;28;20446;-75
2023/12/09 05:56:35;;;;;;;58.28;19.40;;;;;;;;;;5034917;28;20040;-75
2023/12/09 05:59:01;;;;;;;54.10;18.88;;;;;;;;;;5051327;28;20076;-75
2023/12/09 06:01:27;;;;;;;69.72;19.45;;;;;;;;;;5051552;28;20420;-74
2023/12/09 06:03:53;;;;;;;42.28;16.92;;;;;;;;;;5034709;28;20041;-74
2023/12/09 06:06:19;;;;;;;46.83;18.77;;;;;;;;;;5051275;28;20041;-75
2023/12/09 06:08:45;;;;;;;52.53;18.40;;;;;;;;;;5034659;28;20041;-75
2023/12/09 06:11:11;;;;;;;47.92;17.45;;;;;;;;;;5034515;28;20037;-75
2023/12/09 06:13:37;;;;;;;49.75;17.77;;;;;;;;;;5034488;28;20558;-74
2023/12/09 06:16:03;;;;;;;41.95;16.45;;;11.90;99.90;;;;;;5051111;28;20045;-75
2023/12/09 06:18:29;;;;;;;49.72;18.42;;;;;;;;;;5051028;28;20170;-76
2023/12/09 06:20:55;;;;;;;49.65;17.77;;;;;;;;;;5034271;28;20080;-76
2023/12/09 06:23:21;;;;;;;43.05;17.08;;;;;;;;;;5050976;28;20080;-75
2023/12/09 06:25:48;;;;;;;40.63;16.73;;;;;;;;;;5050589;28;20037;-75
2023/12/09 06:28:14;;;;;;;49.60;17.23;;;;;;;;;;5051238;28;20385;-74
2023/12/09 06:30:40;;;;;;;46.35;18.17;;;;;;;;;;5050780;28;20123;-74
2023/12/09 06:33:06;;;;;;;46.83;16.63;;;;;;;;;;5050898;28;20619;-75
2023/12/09 06:35:32;;;;;;;49.70;18.02;;;;;;;;;;5034149;28;20045;-74
2023/12/09 06:37:58;;;;;;;48.40;17.70;;;;;;;;;;5050672;28;20417;-75
2023/12/09 06:40:24;;;;;;;46.28;16.35;;;;;;;;;;5050679;28;20048;-75
2023/12/09 06:42:50;;;;;;;48.83;16.80;;;;;;;;;;5034424;28;20091;-75
2023/12/09 06:45:16;;;;;;;47.30;16.20;;;;;;;;;;5050525;28;20175;-75
2023/12/09 06:47:42;;;;;;;36.63;15.18;;;;;;;;;;5034035;28;20416;-75
2023/12/09 06:50:08;;;;;;;36.35;16.25;;;11.80;98.50;;;;;;5050351;28;20044;-74
2023/12/09 06:52:34;;;;;;;42.33;16.60;;;;;;;;;;5033831;28;20044;-75
2023/12/09 06:55:00;;;;;;;59.63;15.93;;;;;;;;;;5050432;28;20037;-75
2023/12/09 06:57:27;;;;;;;43.55;16.08;;;;;;;;;;5050476;28;20041;-74
2023/12/09 06:59:53;;;;;;;46.53;15.70;;;;;;;;;;5050223;28;20037;-75
2023/12/09 07:02:19;;;;;;;52.72;16.52;;;;;;;;;;5033852;28;20390;-75
2023/12/09 07:04:45;;;;;;;44.60;16.48;;;;;;;;;;5050543;28;20033;-75
2023/12/09 07:07:10;;;;;;;34.92;14.00;;;11.80;95.80;;;;;;5050522;28;20041;-75
2023/12/09 07:09:36;;;;;;;37.15;14.43;;;;;;;;;;5050136;28;20550;-74
2023/12/09 07:12:03;;;;;;;45.83;15.02;;;;;;;;;;5050321;28;20040;-75
2023/12/09 07:14:29;;;;;;;34.47;14.65;;;;;;;;;;5033530;28;20052;-75
2023/12/09 07:16:55;;;;;;;41.55;16.80;;;;;;;;;;5050369;28;20114;-75
2023/12/09 07:19:21;;;;;;;56.45;16.25;;;;;;;;;;5049957;28;20128;-75
2023/12/09 07:21:47;;;;;;;46.40;15.15;;;;;;;;;;5050108;28;20552;-75
2023/12/09 07:24:13;;;;;;;42.53;15.48;;;;;;;;;;5049938;28;20048;-74
2023/12/09 07:26:39;;;;;;;35.03;15.25;;;;;;;;;;5050411;28;20052;-76
2023/12/09 07:29:07;;;;;;;43.03;15.93;;;;;;;;;;5033350;28;20040;-75
2023/12/09 07:31:34;;;;;;;49.10;15.80;;;;;;;;;;5050191;28;20052;-75
2023/12/09 07:34:00;;;;;;;46.90;14.48;;;;;;;;;;5050162;28;20378;-75
2023/12/09 07:36:26;;;;;;;45.72;14.60;;;;;;;;;;5050717;28;20037;-75
2023/12/09 07:38:52;;;;;;;32.03;14.20;;;;;;;;;;5054205;28;20053;-74
2023/12/09 07:41:18;;;;;;;32.05;13.75;;;;;;;;;;5054169;28;20040;-75
2023/12/09 07:43:44;;;;;;;47.53;14.48;;;;;;;;;;5037307;28;20037;-75
2023/12/09 07:46:10;;;;;;;32.92;13.25;;;;;;;;;;5054023;28;20041;-75
2023/12/09 07:48:36;;;;;;;44.63;13.98;;;;;;;;;;5037316;28;20523;-75
2023/12/09 07:51:02;;;;;;;48.20;13.40;;;;;;;;;;5053852;28;20128;-75
2023/12/09 07:53:29;;;;;;;42.63;13.70;;;;;;;;;;5037465;28;20139;-75
2023/12/09 07:55:57;;;;;;;31.85;12.30;;;;;;;;;;5053903;28;20124;-76
2023/12/09 07:58:24;;;;;;;39.78;13.18;;;;;;;;;;5053748;28;20036;-75
2023/12/09 08:00:50;;;;;;;40.60;11.75;;;;;;;;;;5053612;28;20044;-75
2023/12/09 08:03:15;;;;;;;31.33;11.77;;;12.00;91.80;;;;;;5053590;28;20041;-75
2023/12/09 08:05:41;;;;;;;39.10;11.85;;;;;;;;;;5053829;28;20047;-75
2023/12/09 08:08:07;;;;;;;36.67;11.35;;;;;;;;;;5053906;28;20051;-75
2023/12/09 08:10:33;;;;;;;46.92;11.82;;;;;;;;;;5037044;28;20088;-75
2023/12/09 08:12:59;;;;;;;48.75;11.90;;;;;;;;;;5053452;28;20049;-75
2023/12/09 08:15:25;;;;;;;39.17;12.05;;;;;;;;;;5053743;28;20135;-75
2023/12/09 08:17:51;;;;;;;38.65;10.68;;;;;;;;;;5053336;28;20041;-75
2023/12/09 08:20:17;;;;;;;37.55;9.82;;;;;;;;;;5053611;28;20190;-74
2023/12/09 08:22:43;;;;;;;44.38;11.88;;;;;;;;;;5053375;28;20036;-75
2023/12/09 08:25:09;;;;;;;34.38;10.55;;;12.10;86.40;;;;;;5053180;28;20048;-75
2023/12/09 08:27:36;;;;;;;36.33;10.70;;;;;;;;;;5053225;28;20041;-75
2023/12/09 08:30:03;;;;;;;37.08;10.35;;;;;;;;;;5053045;28;20083;-75
2023/12/09 08:32:29;;;;;;;33.15;10.43;;;12.00;87.30;;;;;;5053054;28;20053;-75
2023/12/09 08:34:55;;;;;;;35.35;10.38;;;;;;;;;;5036357;28;20120;-75
2023/12/09 08:37:25;;;;;;;34.22;9.77;;;12.00;84.10;;;;;;5052968;28;20041;-74
2023/12/09 08:39:54;;;;;;;24.23;9.38;;;11.80;81.20;;;;;;5036172;28;20041;-75
2023/12/09 08:42:20;;;;;;;29.83;9.77;;;;;;;;;;5053055;28;20045;-75
2023/12/09 08:44:46;;;;;;;26.35;9.90;;;;;;;;;;5052796;28;20043;-75
2023/12/09 08:47:11;;;;;;;28.38;9.95;;;;;;;;;;5052844;28;20052;-75
2023/12/09 08:49:37;;;;;;;33.35;10.75;;;;;;;;;;5051969;28;20060;-75
2023/12/09 08:52:03;;;;;;;40.67;11.82;;;12.00;80.70;;;;;;5053080;28;20040;-75
2023/12/09 08:54:30;;;;;;;29.52;10.77;;;;;;;;;;5052755;28;20037;-75
2023/12/09 08:56:56;;;;;;;32.55;10.40;;;;;;;;;;5036137;28;20086;-75
2023/12/09 08:59:22;;;;;;;43.00;12.40;;;;;;;;;;5052335;28;20045;-75
2023/12/09 09:01:48;;;;;;;35.58;9.95;;;;;;;;;;5052882;28;20052;-75
2023/12/09 09:04:13;;;;;;;37.28;10.63;;;;;;;;;;5052434;28;20485;-75
2023/12/09 09:06:39;;;;;;;24.30;9.80;;;;;;;;;;5052806;28;20049;-74
2023/12/09 09:09:05;;;;;;;31.83;9.70;;;;;;;;;;5035746;28;20075;-76
2023/12/09 09:11:31;;;;;;;28.73;9.85;;;;;;;;;;5052431;28;20105;-75
2023/12/09 09:13:57;;;;;;;23.73;9.10;;;;;;;;;;5052499;28;20044;-75
2023/12/09 09:16:23;;;;;;;30.27;9.30;;;;;;;;;;5035722;28;20048;-75
2023/12/09 09:18:50;;;;;;;27.48;8.55;;;;;;;;;;5052289;28;20080;-73
2023/12/09 09:21:16;;;;;;;28.48;8.95;;;;;;;;;;5035713;28;20067;-75
2023/12/09 09:23:42;;;;;;;28.88;7.90;;;;;;;;;;5052715;28;20049;-75
2023/12/09 09:26:09;;;;;;;28.42;7.72;;;;;;;;;;5052148;28;20048;-75
2023/12/09 09:28:34;;;;;;;27.67;8.80;;;;;;;;;;5035480;28;20048;-74
2023/12/09 09:31:00;;;;;;;24.83;7.93;;;;;;;;;;5051945;28;20408;-74
2023/12/09 09:33:26;;;;;;;24.73;7.85;;;;;;;;;;5052137;28;20040;-74
2023/12/09 09:35:54;;;;;;;37.30;8.60;;;;;;;;;;5052021;28;20489;-74
2023/12/09 09:38:20;;;;;;;31.02;7.75;;;;;;;;;;5052131;28;20045;-75
2023/12/09 09:40:46;;;;;;;30.75;8.15;;;;;;;;;;5052999;28;20059;-75
2023/12/09 09:43:25;;;;;;;32.78;7.93;;;;;;;;;;5051906;28;20036;-74
2023/12/09 09:45:52;;;;;;;19.33;6.57;;;85.10;99.90;;;;;;5052125;28;20037;-75
2023/12/09 09:48:22;;;;;;;23.17;7.30;;;;;;;;;;5051819;28;20045;-74
2023/12/09 09:50:52;;;;;;;26.38;6.82;;;;;;;;;;5051586;28;20041;-75
2023/12/09 09:53:40;;;;;;;22.48;8.00;;;85.80;98.40;;;;;;5051682;28;20136;-74
2023/12/09 09:56:07;;;;;;;23.88;7.50;;;85.40;99.90;;;;;;5051546;28;20488;-74
2023/12/09 09:58:34;;;;;;;24.52;6.93;;;84.70;98.90;;;;;;5051577;28;20041;-74
2023/12/09 10:01:04;;;;;;;22.95;6.97;;;84.00;98.20;;;;;;5051309;28;20130;-75
2023/12/09 10:03:30;;;;;;;24.58;7.07;;;;;;;;;;5051368;28;20039;-75
2023/12/09 10:05:56;;;;;;;19.70;7.10;;;;;;;;;;5034925;28;20041;-73
2023/12/09 10:08:23;;;;;;;23.70;7.35;;;;;;;;;;5051303;28;20045;-74
2023/12/09 10:10:49;;;;;;;19.63;6.15;;;;;;;;;;5051471;28;20053;-75
2023/12/09 10:13:15;;;;;;;21.42;6.70;;;;;;;;;;5034627;28;20067;-75
2023/12/09 10:15:41;;;;;;;22.23;7.00;;;;;;;;;;5051693;28;20044;-75
2023/12/09 10:18:12;;;;;;;21.25;7.03;;;85.50;98.50;;;;;;5034582;28;20037;-75
2023/12/09 10:20:38;;;;;;;27.65;6.22;;;;;;;;;;5050879;28;20045;-75
2023/12/09 10:23:05;;;;;;;23.88;7.50;;;;;;;;;;5050984;28;20412;-75
2023/12/09 10:25:31;;;;;;;26.75;6.75;;;;;;;;;;5034553;28;20037;-75
2023/12/09 10:27:58;;;;;;;26.35;6.90;;;;;;;;;;5051386;28;20410;-75
2023/12/09 10:30:24;;;;;;;21.58;5.32;;;;;;;;;;5034253;28;20045;-75
2023/12/09 10:32:49;;;;;;;16.60;6.05;;;86.30;95.90;;;;;;5051118;28;20068;-75
2023/12/09 10:35:17;;;;;;;15.50;5.65;;;86.20;95.80;;;;;;5050724;28;20045;-75
2023/12/09 10:37:43;;;;;;;21.38;6.10;;;86.30;97.10;;;;;;5034244;28;20127;-76
2023/12/09 10:40:09;;;;;;;22.40;6.47;;;;;;;;;;5050573;28;20040;-75
2023/12/09 10:42:38;;;;;;;16.65;5.85;;;85.10;94.50;;;;;;5051073;28;20195;-75
2023/12/09 10:45:11;;;;;;;23.55;5.78;;;85.60;94.60;;;;;;5034057;28;20144;-75
2023/12/09 10:47:37;;;;;;;31.88;5.93;;;;;;;;;;5034825;28;20044;-75
2023/12/09 10:50:03;;;;;;;24.10;5.47;;;;;;;;;;5050840;28;20191;-75
2023/12/09 10:52:29;;;;;;;23.02;4.72;;;;;;;;;;5050656;28;20052;-75
2023/12/09 10:54:57;;;;;;;21.65;5.50;;;;;;;;;;5050465;28;20509;-74
2023/12/09 10:57:24;;;;;;;20.65;6.28;;;;;;;;;;5033780;28;20041;-75
2023/12/09 10:59:52;;;;;;;17.38;5.32;;;;;;;;;;5050270;28;20045;-75
2023/12/09 11:02:19;;;;;;;15.10;4.53;;;84.70;90.00;;;;;;5050618;28;20048;-75
2023/12/09 11:04:45;;;;;;;18.98;4.60;;;84.50;88.40;;;;;;5050305;28;20051;-76
2023/12/09 11:07:12;;;;;;;17.45;5.00;;;;;;;;;;5034213;28;20032;-75
2023/12/09 11:09:38;;;;;;;24.33;4.68;;;85.10;87.50;;;;;;5050233;28;20037;-75
2023/12/09 11:12:04;;;;;;;16.10;4.30;;;84.40;90.30;;;;;;5049871;28;20037;-75
2023/12/09 11:14:31;;;;;;;15.77;5.00;;;83.90;90.40;;;;;;5050200;28;20037;-75
2023/12/09 11:16:57;;;;;;;12.10;4.55;;;;;;;;;;5050106;28;20054;-75
2023/12/09 11:19:23;;;;;;;19.60;4.70;;;;;;;;;;5033520;28;20429;-75
2023/12/09 11:21:50;;;;;;;21.98;5.57;;;;;;;;;;5033703;28;20048;-75
2023/12/09 11:24:17;;;;;;;14.50;3.55;;;;;;;;;;5049928;28;20128;-75
2023/12/09 11:26:47;;;;;;;16.25;4.90;;;;;;;;;;5050199;28;20496;-74
2023/12/09 11:29:14;;;;;;;12.23;4.55;;;;;;;;;;5050051;28;20041;-74
2023/12/09 11:31:41;;;;;;;15.88;3.97;;;;;;;;;;5050289;28;20049;-75
2023/12/09 11:34:11;;;;;;;9.88;3.75;;;83.00;76.80;;;;;;5049981;28;20496;-75
2023/12/09 11:36:38;;;;;;;16.40;5.20;;;;;;;;;;5050394;28;20147;-75
2023/12/09 11:39:22;;;;;;;15.32;4.13;;;81.40;75.80;;;;;;5050012;28;20087;-75
2023/12/09 11:41:49;;;;;;;13.43;3.80;;;81.60;73.80;;;;;;5034023;28;20076;-75
2023/12/09 11:44:15;;;;;;;16.23;5.30;;;;;;;;;;5050010;28;20064;-75
2023/12/09 11:46:42;;;;;;;12.82;3.70;;;80.70;72.80;;;;;;5050084;28;20044;-75
2023/12/09 11:49:08;;;;;;;12.45;3.70;;;;;;;;;;5049875;28;20055;-75
2023/12/09 11:51:35;;;;;;;12.75;4.03;;;;;;;;;;5050286;28;20131;-75
2023/12/09 11:54:10;;;;;;;16.00;4.35;;;79.90;71.40;;;;;;5049790;28;20085;-75
2023/12/09 11:56:38;;;;;;;19.42;3.78;;;80.60;70.40;;;;;;5049740;28;20068;-75
2023/12/09 11:59:05;;;;;;;12.93;4.32;;;;;;;;;;5033354;28;20123;-75
2023/12/09 12:01:31;;;;;;;24.13;3.65;;;;;;;;;;5033573;28;20068;-75
2023/12/09 12:03:58;;;;;;;14.18;3.40;;;;;;;;;;5050055;28;20451;-75
2023/12/09 12:06:24;;;;;;;12.05;3.63;;;;;;;;;;5050126;28;20037;-75
2023/12/09 12:08:51;;;;;;;12.90;3.20;;;;;;;;;;5033348;28;20041;-74
2023/12/09 12:11:18;;;;;;;16.00;4.63;;;;;;;;;;5034022;28;20045;-75
2023/12/09 12:13:44;;;;;;;11.18;3.40;;;;;;;;;;5033959;28;20033;-75
2023/12/09 12:16:11;;;;;;;10.00;3.03;;;78.40;63.40;;;;;;5049574;28;20047;-75
2023/12/09 12:18:38;;;;;;;12.68;3.08;;;;;;;;;;5049834;28;20037;-75
2023/12/09 12:21:05;;;;;;;10.52;3.17;;;77.50;62.90;;;;;;5049741;28;20072;-75
2023/12/09 12:23:31;;;;;;;13.40;3.17;;;78.30;65.50;;;;;;5033728;28;20041;-76
2023/12/09 12:25:57;;;;;;;11.98;3.28;;;;;;;;;;5053711;28;20064;-76
2023/12/09 12:28:24;;;;;;;10.82;3.65;;;77.30;58.80;;;;;;5053251;28;20504;-75
2023/12/09 12:30:59;;;;;;;12.20;3.22;;;;;;;;;;5036558;28;20041;-76
2023/12/09 12:33:26;;;;;;;14.70;3.42;;;;;;;;;;5036690;28;20087;-75
2023/12/09 12:35:52;;;;;;;15.93;3.13;;;76.90;59.50;;;;;;5053395;28;20041;-74
2023/12/09 12:38:19;;;;;;;11.35;2.85;;;;;;;;;;5052946;28;20060;-75
2023/12/09 12:40:45;;;;;;;12.00;2.80;;;;;;;;;;5052889;28;20132;-75
2023/12/09 12:43:12;;;;;;;11.73;3.20;;;;;;;;;;5053128;28;20052;-74
2023/12/09 12:45:40;;;;;;;7.13;2.72;;;;;;;;;;5053169;28;20055;-76
2023/12/09 12:48:06;;;;;;;13.38;3.05;;;;;;;;;;5052990;28;20076;-76
2023/12/09 12:50:32;;;;;;;12.23;2.75;;;;;;;;;;5052651;28;20131;-75
2023/12/09 12:52:58;;;;;;;9.63;2.63;;;;;;;;;;5052977;28;20171;-76
2023/12/09 12:55:24;;;;;;;7.55;3.15;;;;;;;;;;5036152;28;20044;-74
2023/12/09 12:57:50;;;;;;;9.93;3.13;;;;;;;;;;5052725;28;20068;-75
2023/12/09 13:00:17;;;;;;;12.25;3.17;;;77.70;59.50;;;;;;5052668;28;20401;-75
2023/12/09 13:02:43;;;;;;;9.70;3.45;;;;;;;;;;5052660;28;20044;-75
2023/12/09 13:05:09;;;;;;;10.32;3.13;;;;;;;;;;5053671;28;20036;-74
2023/12/09 13:07:35;;;;;;;9.05;2.80;;;;;;;;;;5052521;28;20136;-75
2023/12/09 13:10:03;;;;;;;10.93;2.67;;;;;;;;;;5052349;28;20394;-75
2023/12/09 13:12:29;;;;;;;11.05;2.92;;;;;;;;;;5052455;28;20051;-74
2023/12/09 13:14:56;;;;;;;10.65;2.92;;;;;;;;;;5052217;28;20090;-75
2023/12/09 13:17:22;;;;;;;11.10;2.58;;;;;;;;;;5052389;28;20048;-75
2023/12/09 13:19:48;;;;;;;14.52;3.03;;;;;;;;;;5052310;28;20036;-74
2023/12/09 13:22:14;;;;;;;8.35;2.50;;;;;;;;;;5052621;28;20540;-74
2023/12/09 13:24:40;;;;;;;10.02;3.00;;;;;;;;;;5052201;28;20068;-75
2023/12/09 13:27:06;;;;;;;10.32;2.75;;;;;;;;;;5035634;28;20047;-75
2023/12/09 13:29:33;;;;;;;8.38;2.92;;;;;;;;;;5051895;28;20048;-74
2023/12/09 13:31:59;;;;;;;10.40;2.70;;;;;;;;;;5035607;28;20045;-75
2023/12/09 13:34:26;;;;;;;15.25;2.65;;;;;;;;;;5051777;28;20451;-74
2023/12/09 13:36:52;;;;;;;11.23;2.92;;;;;;;;;;5052077;28;20099;-75
2023/12/09 13:39:19;;;;;;;9.23;3.03;;;79.10;71.90;;;;;;5052230;28;20413;-75
2023/12/09 13:41:45;;;;;;;8.52;2.85;;;;;;;;;;5052102;28;20052;-73
2023/12/09 13:44:11;;;;;;;8.98;2.38;;;;;;;;;;5051797;28;20118;-75
2023/12/09 13:46:37;;;;;;;11.15;2.83;;;;;;;;;;5051851;28;20088;-75